createdAt,value
2018-06-17T00:00:49.411Z,99140.05
2018-06-17T00:03:20.272Z,99143.36
2018-06-17T00:05:52.439Z,99132.72
2018-06-17T00:08:22.949Z,99132.75
2018-06-17T00:10:53.192Z,99135.27
2018-06-17T00:13:24.031Z,99137.44
2018-06-17T00:15:54.300Z,99137.77
2018-06-17T00:18:24.748Z,99136.41
2018-06-17T00:20:55.035Z,99139.36
2018-06-17T00:23:26.608Z,99134.22
2018-06-17T00:25:57.828Z,99140.30
2018-06-17T00:28:28.192Z,99143.03
2018-06-17T00:31:01.911Z,99146.61
2018-06-17T00:33:33.092Z,99148.79
2018-06-17T00:36:03.928Z,99151.48
2018-06-17T00:38:34.378Z,99150.92
2018-06-17T00:41:05.510Z,99152.29
2018-06-17T00:43:35.940Z,99150.42
2018-06-17T00:46:06.539Z,99152.29
2018-06-17T00:48:36.986Z,99145.84
2018-06-17T00:51:07.853Z,99144.75
2018-06-17T00:53:39.611Z,99139.62
2018-06-17T00:56:09.875Z,99145.95
2018-06-17T00:58:40.363Z,99147.33
2018-06-17T01:01:10.908Z,99146.22
2018-06-17T01:03:41.302Z,99139.88
2018-06-17T01:07:42.250Z,99137.41
2018-06-17T01:10:13.210Z,99130.86
2018-06-17T01:12:44.792Z,99130.02
2018-06-17T01:15:15.018Z,99130.86
2018-06-17T01:17:45.872Z,99123.20
2018-06-17T01:20:16.077Z,99126.80
2018-06-17T01:22:46.683Z,99127.07
2018-06-17T01:25:17.696Z,99125.70
2018-06-17T01:27:48.048Z,99124.63
2018-06-17T01:30:18.411Z,99118.33
2018-06-17T01:32:48.521Z,99129.28
2018-06-17T01:35:19.067Z,99124.07
2018-06-17T01:37:49.429Z,99126.20
2018-06-17T01:40:19.700Z,99122.70
2018-06-17T01:42:50.181Z,99121.95
2018-06-17T01:45:20.486Z,99120.69
2018-06-17T01:47:50.947Z,99119.10
2018-06-17T01:50:21.214Z,99122.44
2018-06-17T01:52:52.012Z,99113.97
2018-06-17T01:55:22.764Z,99116.77
2018-06-17T01:57:53.139Z,99119.23
2018-06-17T02:00:23.539Z,99123.44
2018-06-17T02:02:54.023Z,99119.06
2018-06-17T02:05:29.549Z,99114.74
2018-06-17T02:08:04.970Z,99116.39
2018-06-17T02:10:40.214Z,99116.16
2018-06-17T02:13:10.117Z,99118.91
2018-06-17T02:15:40.392Z,99118.41
2018-06-17T02:18:10.752Z,99112.41
2018-06-17T02:20:41.055Z,99111.85
2018-06-17T02:23:11.497Z,99109.69
2018-06-17T02:25:42.040Z,99114.05
2018-06-17T02:28:12.386Z,99114.05
2018-06-17T02:30:43.096Z,99114.05
2018-06-17T02:33:13.432Z,99112.12
2018-06-17T02:35:44.011Z,99112.92
2018-06-17T02:38:14.392Z,99112.92
2018-06-17T02:40:44.581Z,99110.48
2018-06-17T02:43:14.768Z,99112.67
2018-06-17T02:45:50.352Z,99111.30
2018-06-17T02:48:25.925Z,99114.59
2018-06-17T02:51:02.019Z,99115.95
2018-06-17T02:53:37.420Z,99115.41
2018-06-17T02:56:07.849Z,99118.39
2018-06-17T02:58:38.205Z,99113.22
2018-06-17T03:01:08.503Z,99119.99
2018-06-17T03:03:39.066Z,99122.39
2018-06-17T03:06:09.280Z,99121.75
2018-06-17T03:08:39.704Z,99122.30
2018-06-17T03:11:10.056Z,99124.70
2018-06-17T03:13:43.349Z,99123.32
2018-06-17T03:16:13.293Z,99122.17
2018-06-17T03:18:43.779Z,99130.92
2018-06-17T03:21:14.113Z,99123.48
2018-06-17T03:23:44.063Z,99122.08
2018-06-17T03:26:19.441Z,99122.56
2018-06-17T03:28:54.888Z,99124.14
2018-06-17T03:31:25.316Z,99126.06
2018-06-17T03:33:56.819Z,99127.14
2018-06-17T03:36:27.186Z,99128.80
2018-06-17T03:38:57.548Z,99132.02
2018-06-17T03:41:27.935Z,99135.02
2018-06-17T03:43:58.592Z,99135.78
2018-06-17T03:46:29.157Z,99135.78
2018-06-17T03:48:59.572Z,99131.89
2018-06-17T03:51:30.258Z,99133.53
2018-06-17T03:54:00.562Z,99135.71
2018-06-17T03:56:30.628Z,99136.21
2018-06-17T03:59:00.921Z,99137.77
2018-06-17T04:01:31.512Z,99140.17
2018-06-17T04:04:01.863Z,99137.67
2018-06-17T04:06:32.414Z,99140.62
2018-06-17T04:09:02.604Z,99139.46
2018-06-17T04:11:33.160Z,99141.09
2018-06-17T04:14:03.668Z,99139.23
2018-06-17T04:16:33.955Z,99143.02
2018-06-17T04:19:04.395Z,99146.09
2018-06-17T04:21:34.607Z,99150.17
2018-06-17T04:24:04.951Z,99146.91
2018-06-17T04:26:35.509Z,99151.35
2018-06-17T04:29:05.964Z,99142.30
2018-06-17T04:31:36.556Z,99143.89
2018-06-17T04:34:06.817Z,99149.23
2018-06-17T04:36:37.073Z,99148.58
2018-06-17T04:39:08.719Z,99155.92
2018-06-17T04:41:39.072Z,99157.72
2018-06-17T04:44:09.374Z,99166.12
2018-06-17T04:46:39.670Z,99165.11
2018-06-17T04:49:10.325Z,99169.20
2018-06-17T04:51:40.697Z,99172.42
2018-06-17T04:54:11.249Z,99172.42
2018-06-17T04:56:41.713Z,99176.53
2018-06-17T04:59:12.376Z,99178.17
2018-06-17T05:01:42.586Z,99171.73
2018-06-17T05:04:13.099Z,99174.46
2018-06-17T05:06:43.611Z,99179.27
2018-06-17T05:09:13.691Z,99173.70
2018-06-17T05:11:44.492Z,99183.17
2018-06-17T05:14:15.579Z,99183.84
2018-06-17T05:16:46.317Z,99182.61
2018-06-17T05:19:17.568Z,99186.37
2018-06-17T05:21:47.954Z,99190.42
2018-06-17T05:24:18.368Z,99187.03
2018-06-17T05:26:49.035Z,99186.61
2018-06-17T05:29:19.316Z,99190.08
2018-06-17T05:31:49.676Z,99187.53
2018-06-17T05:34:19.882Z,99189.03
2018-06-17T05:36:50.415Z,99188.67
2018-06-17T05:39:20.790Z,99197.85
2018-06-17T05:41:51.198Z,99197.49
2018-06-17T05:44:21.415Z,99196.51
2018-06-17T05:46:51.841Z,99199.70
2018-06-17T05:49:22.186Z,99203.53
2018-06-17T05:51:52.621Z,99199.47
2018-06-17T05:54:23.110Z,99203.55
2018-06-17T05:56:53.501Z,99204.81
2018-06-17T05:59:23.721Z,99209.94
2018-06-17T06:01:54.258Z,99207.09
2018-06-17T06:04:24.721Z,99208.84
2018-06-17T06:06:54.986Z,99209.36
2018-06-17T06:09:25.209Z,99213.77
2018-06-17T06:11:55.492Z,99211.84
2018-06-17T06:14:26.032Z,99218.34
2018-06-17T06:16:56.343Z,99214.23
2018-06-17T06:19:26.804Z,99211.30
2018-06-17T06:22:03.756Z,99210.84
2018-06-17T06:24:34.198Z,99213.22
2018-06-17T06:27:04.421Z,99218.09
2018-06-17T06:29:35.478Z,99208.80
2018-06-17T06:32:06.045Z,99215.34
2018-06-17T06:34:38.003Z,99215.22
2018-06-17T06:37:08.324Z,99215.89
2018-06-17T06:39:38.650Z,99204.59
2018-06-17T06:42:09.164Z,99216.69
2018-06-17T06:44:39.396Z,99212.22
2018-06-17T06:47:09.963Z,99218.72
2018-06-17T06:49:40.220Z,99223.53
2018-06-17T06:52:10.379Z,99217.39
2018-06-17T06:54:40.927Z,99221.23
2018-06-17T06:57:11.148Z,99221.41
2018-06-17T06:59:41.790Z,99226.48
2018-06-17T07:02:22.556Z,99224.56
2018-06-17T07:05:03.579Z,99222.28
2018-06-17T07:07:44.774Z,99229.89
2018-06-17T07:10:23.298Z,99229.98
2018-06-17T07:12:53.868Z,99234.18
2018-06-17T07:15:36.304Z,99234.23
2018-06-17T07:18:17.262Z,99237.27
2018-06-17T07:20:47.308Z,99238.56
2018-06-17T07:23:17.115Z,99229.87
2018-06-17T07:26:56.683Z,99231.97
2018-06-17T07:29:39.356Z,99231.09
2018-06-17T07:32:09.355Z,99233.88
2018-06-17T07:34:39.131Z,99229.09
2018-06-17T07:37:09.425Z,99224.98
2018-06-17T07:40:19.357Z,99216.23
2018-06-17T07:42:49.894Z,99222.06
2018-06-17T07:45:19.852Z,99225.32
2018-06-17T07:47:49.825Z,99224.05
2018-06-17T07:50:30.376Z,99228.50
2018-06-17T07:53:12.489Z,99229.97
2018-06-17T07:55:42.139Z,99233.92
2018-06-17T07:58:11.946Z,99231.33
2018-06-17T08:00:41.967Z,99227.19
2018-06-17T08:03:11.807Z,99231.64
2018-06-17T08:05:41.574Z,99233.33
2018-06-17T08:08:11.330Z,99234.05
2018-06-17T08:10:41.248Z,99231.53
2018-06-17T08:13:10.943Z,99219.59
2018-06-17T08:15:40.693Z,99219.44
2018-06-17T08:18:10.462Z,99227.86
2018-06-17T08:20:40.320Z,99226.22
2018-06-17T08:23:10.223Z,99229.24
2018-06-17T08:25:39.960Z,99228.88
2018-06-17T08:28:09.719Z,99220.33
2018-06-17T08:30:39.505Z,99219.95
2018-06-17T08:33:09.495Z,99213.27
2018-06-17T08:35:39.299Z,99213.17
2018-06-17T08:38:09.248Z,99209.98
2018-06-17T08:40:39.131Z,99207.29
2018-06-17T08:43:08.805Z,99209.03
2018-06-17T08:45:38.721Z,99210.33
2018-06-17T08:48:09.288Z,99212.45
2018-06-17T08:50:39.716Z,99207.53
2018-06-17T08:53:11.423Z,99204.91
2018-06-17T08:55:41.305Z,99207.38
2018-06-17T08:58:11.255Z,99199.29
2018-06-17T09:00:41.117Z,99195.44
2018-06-17T09:03:11.019Z,99198.94
2018-06-17T09:05:40.928Z,99202.17
2018-06-17T09:08:10.685Z,99201.41
2018-06-17T09:10:40.775Z,99196.89
2018-06-17T09:13:10.660Z,99202.47
2018-06-17T09:15:40.635Z,99186.26
2018-06-17T09:18:10.598Z,99196.95
2018-06-17T09:20:40.351Z,99188.53
2018-06-17T09:23:10.000Z,99198.23
2018-06-17T09:25:39.919Z,99196.00
2018-06-17T09:28:10.154Z,99188.41
2018-06-17T09:30:40.286Z,99188.95
2018-06-17T09:33:09.923Z,99189.32
2018-06-17T09:35:39.876Z,99186.67
2018-06-17T09:38:09.544Z,99174.23
2018-06-17T09:40:39.318Z,99171.59
2018-06-17T09:43:09.338Z,99177.25
2018-06-17T09:45:39.057Z,99173.46
2018-06-17T09:48:08.802Z,99176.34
2018-06-17T09:50:38.819Z,99173.70
2018-06-17T09:53:08.943Z,99163.95
2018-06-17T09:55:38.774Z,99158.08
2018-06-17T09:58:08.511Z,99160.41
2018-06-17T10:00:38.568Z,99169.41
2018-06-17T10:03:08.557Z,99161.33
2018-06-17T10:05:38.342Z,99162.70
2018-06-17T10:08:08.787Z,99156.13
2018-06-17T10:10:53.712Z,99166.62
2018-06-17T10:13:25.387Z,99149.08
2018-06-17T10:15:55.872Z,99153.63
2018-06-17T10:18:26.479Z,99155.31
2018-06-17T10:20:56.689Z,99163.92
2018-06-17T10:23:27.104Z,99162.86
2018-06-17T10:25:57.658Z,99155.46
2018-06-17T10:28:29.000Z,99154.82
2018-06-17T10:31:00.404Z,99157.25
2018-06-17T10:33:30.563Z,99159.91
2018-06-17T10:36:01.619Z,99148.95
2018-06-17T10:38:31.931Z,99153.20
2018-06-17T10:41:02.299Z,99149.63
2018-06-17T10:43:33.397Z,99142.31
2018-06-17T10:46:03.997Z,99151.95
2018-06-17T10:48:37.378Z,99158.05
2018-06-17T10:51:07.727Z,99154.75
2018-06-17T10:53:38.162Z,99148.77
2018-06-17T10:56:08.838Z,99138.39
2018-06-17T10:58:39.329Z,99143.12
2018-06-17T11:01:09.597Z,99129.80
2018-06-17T11:03:39.602Z,99140.48
2018-06-17T11:06:09.880Z,99141.97
2018-06-17T11:08:40.284Z,99138.47
2018-06-17T11:11:10.431Z,99134.13
2018-06-17T11:13:40.701Z,99131.27
2018-06-17T11:16:10.864Z,99134.18
2018-06-17T11:18:41.183Z,99141.59
2018-06-17T11:21:11.775Z,99135.98
2018-06-17T11:23:42.075Z,99134.91
2018-06-17T11:26:12.866Z,99129.36
2018-06-17T11:28:43.349Z,99132.22
2018-06-17T11:31:13.734Z,99135.19
2018-06-17T11:33:44.404Z,99129.27
2018-06-17T11:36:14.880Z,99134.06
2018-06-17T11:38:45.311Z,99136.17
2018-06-17T11:41:15.519Z,99133.56
2018-06-17T11:43:46.197Z,99140.88
2018-06-17T11:46:16.463Z,99130.23
2018-06-17T11:48:47.007Z,99139.12
2018-06-17T11:51:17.533Z,99135.05
2018-06-17T11:53:48.091Z,99129.50
2018-06-17T11:56:18.698Z,99123.31
2018-06-17T11:58:49.044Z,99117.34
2018-06-17T12:01:19.720Z,99129.26
2018-06-17T12:03:50.150Z,99133.58
2018-06-17T12:06:20.348Z,99123.06
2018-06-17T12:08:51.356Z,99127.34
2018-06-17T12:11:21.849Z,99124.33
2018-06-17T12:13:52.417Z,99127.88
2018-06-17T12:16:23.275Z,99129.69
2018-06-17T12:18:54.041Z,99130.73
2018-06-17T12:21:24.340Z,99131.97
2018-06-17T12:23:55.000Z,99134.17
2018-06-17T12:26:25.539Z,99137.06
2018-06-17T12:28:55.976Z,99133.78
2018-06-17T12:31:26.348Z,99136.75
2018-06-17T12:33:56.599Z,99133.19
2018-06-17T12:36:26.997Z,99127.86
2018-06-17T12:38:57.379Z,99125.34
2018-06-17T12:41:28.301Z,99133.09
2018-06-17T12:43:58.685Z,99132.87
2018-06-17T12:46:29.199Z,99136.92
2018-06-17T12:48:59.734Z,99136.58
2018-06-17T12:51:30.254Z,99132.67
2018-06-17T12:54:01.044Z,99126.41
2018-06-17T12:56:31.440Z,99127.53
2018-06-17T12:59:01.813Z,99124.98
2018-06-17T13:01:35.017Z,99115.44
2018-06-17T13:04:05.626Z,99114.83
2018-06-17T13:06:36.012Z,99132.07
2018-06-17T13:09:08.544Z,99124.34
2018-06-17T13:11:38.814Z,99132.98
2018-06-17T13:14:09.733Z,99121.75
2018-06-17T13:16:40.171Z,99132.22
2018-06-17T13:19:10.697Z,99128.78
2018-06-17T13:21:40.653Z,99125.48
2018-06-17T13:24:11.230Z,99122.16
2018-06-17T13:26:41.529Z,99122.76
2018-06-17T13:29:11.844Z,99117.72
2018-06-17T13:31:42.188Z,99124.73
2018-06-17T13:34:12.548Z,99119.31
2018-06-17T13:36:43.012Z,99119.33
2018-06-17T13:39:13.594Z,99116.36
2018-06-17T13:41:43.836Z,99127.54
2018-06-17T13:44:14.014Z,99127.53
2018-06-17T13:46:44.621Z,99123.15
2018-06-17T13:49:15.825Z,99127.81
2018-06-17T13:51:46.394Z,99129.17
2018-06-17T13:54:16.802Z,99123.85
2018-06-17T13:56:47.109Z,99129.47
2018-06-17T13:59:17.825Z,99125.89
2018-06-17T14:01:48.857Z,99119.17
2018-06-17T14:04:19.483Z,99119.13
2018-06-17T14:06:49.961Z,99124.66
2018-06-17T14:09:20.511Z,99126.25
2018-06-17T14:11:50.835Z,99123.13
2018-06-17T14:14:21.129Z,99122.22
2018-06-17T14:16:51.284Z,99125.44
2018-06-17T14:19:22.455Z,99121.89
2018-06-17T14:21:52.777Z,99122.34
2018-06-17T14:24:24.040Z,99120.84
2018-06-17T14:26:54.918Z,99113.11
2018-06-17T14:29:26.017Z,99115.39
2018-06-17T14:31:56.897Z,99119.53
2018-06-17T14:34:27.364Z,99108.84
2018-06-17T14:36:57.705Z,99107.78
2018-06-17T14:39:28.221Z,99081.23
2018-06-17T14:42:03.953Z,99104.56
2018-06-17T14:44:39.524Z,99104.56
2018-06-17T14:47:14.727Z,99103.40
2018-06-17T14:49:50.527Z,99098.56
2018-06-17T14:52:26.776Z,99099.50
2018-06-17T14:54:58.241Z,99097.91
2018-06-17T14:57:29.179Z,99091.82
2018-06-17T15:00:00.375Z,99091.46
2018-06-17T15:02:30.933Z,99092.97
2018-06-17T15:05:02.736Z,99094.70
2018-06-17T15:07:33.111Z,99095.16
2018-06-17T15:10:03.916Z,99099.19
2018-06-17T15:12:34.501Z,99093.33
2018-06-17T15:15:05.043Z,99096.25
2018-06-17T15:17:35.762Z,99096.17
2018-06-17T15:20:06.439Z,99092.03
2018-06-17T15:22:37.014Z,99093.17
2018-06-17T15:25:07.658Z,99091.58
2018-06-17T15:27:38.191Z,99091.00
2018-06-17T15:30:09.181Z,99089.71
2018-06-17T15:32:44.843Z,99087.77
2018-06-17T15:35:21.847Z,99088.58
2018-06-17T15:37:58.225Z,99084.91
2018-06-17T15:40:34.085Z,99086.98
2018-06-17T15:43:04.419Z,99086.50
2018-06-17T15:45:35.105Z,99077.75
2018-06-17T15:48:06.025Z,99085.00
2018-06-17T15:50:36.697Z,99083.64
2018-06-17T15:53:06.945Z,99080.07
2018-06-17T15:55:37.764Z,99078.45
2018-06-17T15:58:08.511Z,99078.59
2018-06-17T16:00:38.910Z,99075.25
2018-06-17T16:03:09.278Z,99084.34
2018-06-17T16:05:39.835Z,99082.84
2018-06-17T16:08:10.894Z,99083.98
2018-06-17T16:10:41.410Z,99081.91
2018-06-17T16:13:17.022Z,99084.09
2018-06-17T16:15:52.404Z,99085.69
2018-06-17T16:18:27.850Z,99087.88
2018-06-17T16:20:58.543Z,99087.75
2018-06-17T16:23:30.190Z,99085.48
2018-06-17T16:26:00.497Z,99089.62
2018-06-17T16:28:30.922Z,99091.00
2018-06-17T16:31:01.249Z,99088.45
2018-06-17T16:33:31.684Z,99084.98
2018-06-17T16:36:02.020Z,99082.09
2018-06-17T16:38:32.152Z,99083.12
2018-06-17T16:41:02.430Z,99079.46
2018-06-17T16:43:32.572Z,99072.88
2018-06-17T16:46:02.940Z,99077.59
2018-06-17T16:48:33.345Z,99073.57
2018-06-17T16:51:08.883Z,99073.44
2018-06-17T16:53:44.357Z,99072.26
2018-06-17T16:56:19.726Z,99073.31
2018-06-17T16:58:54.815Z,99071.13
2018-06-17T17:01:25.267Z,99071.61
2018-06-17T17:03:55.643Z,99069.94
2018-06-17T17:06:26.346Z,99074.58
2018-06-17T17:08:56.549Z,99075.15
2018-06-17T17:11:27.055Z,99080.91
2018-06-17T17:13:57.275Z,99080.53
2018-06-17T17:16:27.650Z,99086.42
2018-06-17T17:18:57.994Z,99084.80
2018-06-17T17:21:28.394Z,99088.33
2018-06-17T17:23:58.976Z,99086.73
2018-06-17T17:26:29.392Z,99093.16
2018-06-17T17:28:59.735Z,99097.52
2018-06-17T17:31:35.002Z,99093.14
2018-06-17T17:34:10.522Z,99095.20
2018-06-17T17:36:45.790Z,99091.63
2018-06-17T17:39:21.155Z,99100.23
2018-06-17T17:41:51.623Z,99093.09
2018-06-17T17:44:22.389Z,99099.09
2018-06-17T17:46:57.585Z,99093.58
2018-06-17T17:49:27.918Z,99093.09
2018-06-17T17:51:58.368Z,99095.50
2018-06-17T17:54:28.561Z,99098.28
2018-06-17T17:56:58.710Z,99101.10
2018-06-17T17:59:28.934Z,99101.50
2018-06-17T18:01:59.337Z,99104.05
2018-06-17T18:04:29.440Z,99104.05
2018-06-17T18:06:59.723Z,99104.05
2018-06-17T18:09:30.139Z,99105.43
2018-06-17T18:12:00.766Z,99109.77
2018-06-17T18:14:30.968Z,99102.41
2018-06-17T18:17:01.447Z,99105.16
2018-06-17T18:19:32.142Z,99103.30
2018-06-17T18:22:02.505Z,99102.16
2018-06-17T18:24:32.989Z,99104.67
2018-06-17T18:27:08.444Z,99107.30
2018-06-17T18:29:44.206Z,99112.55
2018-06-17T18:32:19.484Z,99111.91
2018-06-17T18:34:54.777Z,99106.04
2018-06-17T18:37:25.210Z,99103.84
2018-06-17T18:39:55.827Z,99117.08
2018-06-17T18:42:26.682Z,99109.87
2018-06-17T18:44:57.222Z,99111.59
2018-06-17T18:47:27.886Z,99116.63
2018-06-17T18:49:59.103Z,99114.78
2018-06-17T18:52:29.583Z,99122.49
2018-06-17T18:55:01.047Z,99124.97
2018-06-17T18:57:31.792Z,99128.15
2018-06-17T19:00:02.219Z,99131.33
2018-06-17T19:02:33.708Z,99134.76
2018-06-17T19:05:04.082Z,99141.87
2018-06-17T19:07:34.773Z,99145.13
2018-06-17T19:11:09.224Z,99146.82
2018-06-17T19:13:44.636Z,99148.69
2018-06-17T19:16:20.507Z,99148.86
2018-06-17T19:18:51.165Z,99151.77
2018-06-17T19:21:22.527Z,99150.17
2018-06-17T19:23:53.334Z,99154.48
2018-06-17T19:26:23.781Z,99160.55
2018-06-17T19:28:54.221Z,99162.03
2018-06-17T19:37:00.349Z,99152.84
2018-06-17T19:39:30.656Z,99168.97
2018-06-17T19:47:37.309Z,99180.50
2018-06-17T19:50:12.740Z,99180.92
2018-06-17T19:52:48.114Z,99181.13
2018-06-17T19:55:23.482Z,99185.47
2018-06-17T19:57:58.761Z,99190.27
2018-06-17T20:00:32.679Z,99186.77
2018-06-17T20:03:03.960Z,99188.80
2018-06-17T20:05:34.520Z,99188.48
2018-06-17T20:08:05.130Z,99188.55
2018-06-17T20:10:35.443Z,99187.17
2018-06-17T20:13:05.679Z,99195.30
2018-06-17T20:15:35.991Z,99194.02
2018-06-17T20:18:06.783Z,99198.72
2018-06-17T20:20:37.198Z,99195.14
2018-06-17T20:23:07.365Z,99193.05
2018-06-17T20:25:37.874Z,99196.37
2018-06-17T20:28:08.106Z,99197.84
2018-06-17T20:30:38.250Z,99198.72
2018-06-17T20:33:13.539Z,99193.55
2018-06-17T20:35:49.005Z,99198.25
2018-06-17T20:38:24.455Z,99199.38
2018-06-17T20:40:59.702Z,99195.00
2018-06-17T20:43:35.134Z,99196.97
2018-06-17T20:46:05.921Z,99193.72
2018-06-17T20:48:36.499Z,99197.75
2018-06-17T20:51:06.798Z,99203.20
2018-06-17T20:53:37.094Z,99199.98
2018-06-17T20:56:07.965Z,99203.20
2018-06-17T20:58:38.257Z,99213.91
2018-06-17T21:01:08.635Z,99218.70
2018-06-17T21:03:39.161Z,99220.14
2018-06-17T21:06:09.490Z,99222.59
2018-06-17T21:08:39.780Z,99223.09
2018-06-17T21:11:10.139Z,99225.19
2018-06-17T21:13:40.452Z,99222.58
2018-06-17T21:16:10.814Z,99220.58
2018-06-17T21:18:46.277Z,99230.38
2018-06-17T21:21:21.849Z,99226.28
2018-06-17T21:23:57.286Z,99234.22
2018-06-17T21:26:32.634Z,99228.05
2018-06-17T21:29:02.902Z,99230.30
2018-06-17T21:31:33.586Z,99234.27
2018-06-17T21:34:04.113Z,99227.84
2018-06-17T21:36:34.578Z,99240.14
2018-06-17T21:39:06.542Z,99234.13
2018-06-17T21:41:37.181Z,99237.61
2018-06-17T21:44:07.952Z,99229.55
2018-06-17T21:46:38.296Z,99228.56
2018-06-17T21:49:08.567Z,99224.31
2018-06-17T21:51:38.672Z,99229.98
2018-06-17T21:54:09.063Z,99227.36
2018-06-17T21:56:39.768Z,99233.38
2018-06-17T21:59:10.102Z,99230.02
2018-06-17T22:01:40.483Z,99227.05
2018-06-17T22:04:15.698Z,99226.27
2018-06-17T22:06:45.755Z,99219.00
2018-06-17T22:09:21.131Z,99224.06
2018-06-17T22:11:56.391Z,99224.37
2018-06-17T22:14:31.848Z,99229.20
2018-06-17T22:17:07.186Z,99229.25
2018-06-17T22:19:37.668Z,99229.07
2018-06-17T22:22:07.875Z,99235.72
2018-06-17T22:24:38.195Z,99231.97
2018-06-17T22:27:08.459Z,99240.45
2018-06-17T22:29:38.750Z,99238.89
2018-06-17T22:32:09.016Z,99236.47
2018-06-17T22:34:39.854Z,99246.92
2018-06-17T22:37:10.167Z,99247.73
2018-06-17T22:39:40.513Z,99247.30
2018-06-17T22:42:10.867Z,99241.80
2018-06-17T22:44:40.963Z,99251.23
2018-06-17T22:47:11.486Z,99242.77
2018-06-17T22:49:41.964Z,99249.67
2018-06-17T22:52:12.014Z,99240.39
2018-06-17T22:54:51.027Z,99244.18
2018-06-17T22:57:26.127Z,99251.20
2018-06-17T23:00:01.639Z,99250.50
2018-06-17T23:02:36.491Z,99247.19
2018-06-17T23:05:11.892Z,99248.67
2018-06-17T23:07:47.238Z,99256.62
2018-06-17T23:10:17.530Z,99259.81
2018-06-17T23:12:48.445Z,99261.22
2018-06-17T23:15:19.024Z,99269.83
2018-06-17T23:17:49.494Z,99267.52
2018-06-17T23:20:19.875Z,99266.44
2018-06-17T23:22:50.142Z,99266.22
2018-06-17T23:25:20.340Z,99266.02
2018-06-17T23:27:50.720Z,99267.39
2018-06-17T23:30:21.479Z,99264.46
2018-06-17T23:32:51.986Z,99258.45
2018-06-17T23:35:22.179Z,99262.01
2018-06-17T23:37:52.543Z,99264.50
2018-06-17T23:40:22.579Z,99269.50
2018-06-17T23:42:52.852Z,99272.17
2018-06-17T23:45:22.968Z,99276.43
2018-06-17T23:47:58.310Z,99273.62
2018-06-17T23:50:34.554Z,99276.85
2018-06-17T23:53:09.744Z,99275.42
2018-06-17T23:55:45.394Z,99271.14
2018-06-17T23:58:16.498Z,99270.69
